createdAt,value
2017-01-16T00:00:57.447Z,1010.76
2017-01-16T00:02:11.275Z,1010.7
2017-01-16T00:03:26.449Z,1010.73
2017-01-16T00:04:40.556Z,1010.73
2017-01-16T00:05:54.150Z,1010.74
2017-01-16T00:07:07.751Z,1010.7
2017-01-16T00:08:21.495Z,1010.71
2017-01-16T00:09:35.422Z,1010.69
2017-01-16T00:10:49.071Z,1010.71
2017-01-16T00:12:02.682Z,1010.7
2017-01-16T00:13:16.490Z,1010.69
2017-01-16T00:14:30.627Z,1010.71
2017-01-16T00:15:45.890Z,1010.73
2017-01-16T00:16:59.472Z,1010.69
2017-01-16T00:18:13.082Z,1010.71
2017-01-16T00:19:26.764Z,1010.71
2017-01-16T00:20:40.352Z,1010.64
2017-01-16T00:21:55.153Z,1010.7
2017-01-16T00:23:09.135Z,1010.72
2017-01-16T00:24:24.449Z,1010.72
2017-01-16T00:25:38.059Z,1010.7
2017-01-16T00:26:51.969Z,1010.69
2017-01-16T00:28:06.139Z,1010.68
2017-01-16T00:29:19.928Z,1010.68
2017-01-16T00:30:33.560Z,1010.7
2017-01-16T00:31:47.234Z,1010.7
2017-01-16T00:33:01.220Z,1010.71
2017-01-16T00:34:15.941Z,1010.71
2017-01-16T00:35:29.774Z,1010.69
2017-01-16T00:36:43.367Z,1010.7
2017-01-16T00:37:57.414Z,1010.67
2017-01-16T00:39:11.622Z,1010.69
2017-01-16T00:40:26.013Z,1010.63
2017-01-16T00:41:39.682Z,1010.6
2017-01-16T00:42:54.388Z,1010.6
2017-01-16T00:44:08.185Z,1010.62
2017-01-16T00:45:21.870Z,1010.6
2017-01-16T00:46:35.869Z,1010.67
2017-01-16T00:47:50.096Z,1010.62
2017-01-16T00:49:03.831Z,1010.62
2017-01-16T00:50:17.526Z,1010.64
2017-01-16T00:51:31.115Z,1010.62
2017-01-16T00:52:45.056Z,1010.63
2017-01-16T00:53:58.972Z,1010.68
2017-01-16T00:55:12.783Z,1010.63
2017-01-16T00:56:26.678Z,1010.66
2017-01-16T00:57:40.424Z,1010.62
2017-01-16T00:58:54.433Z,1010.64
2017-01-16T01:00:08.665Z,1010.66
2017-01-16T01:01:22.518Z,1010.65
2017-01-16T01:02:36.113Z,1010.64
2017-01-16T01:03:51.907Z,1010.62
2017-01-16T01:05:05.863Z,1010.62
2017-01-16T01:06:19.694Z,1010.63
2017-01-16T01:07:33.349Z,1010.63
2017-01-16T01:08:47.363Z,1010.64
2017-01-16T01:10:01.468Z,1010.61
2017-01-16T01:11:15.562Z,1010.62
2017-01-16T01:12:29.435Z,1010.6
2017-01-16T01:13:43.450Z,1010.65
2017-01-16T01:14:57.045Z,1010.67
2017-01-16T01:16:10.755Z,1010.61
2017-01-16T01:17:24.668Z,1010.64
2017-01-16T01:18:39.226Z,1010.61
2017-01-16T01:19:52.861Z,1010.66
2017-01-16T01:21:06.586Z,1010.64
2017-01-16T01:22:21.540Z,1010.64
2017-01-16T01:23:35.477Z,1010.7
2017-01-16T01:24:49.188Z,1010.69
2017-01-16T01:26:02.813Z,1010.72
2017-01-16T01:27:16.674Z,1010.72
2017-01-16T01:28:30.381Z,1010.72
2017-01-16T01:29:44.078Z,1010.75
2017-01-16T01:30:57.887Z,1010.75
2017-01-16T01:32:12.782Z,1010.77
2017-01-16T01:33:26.432Z,1010.71
2017-01-16T01:34:40.036Z,1010.76
2017-01-16T01:35:53.989Z,1010.8
2017-01-16T01:37:08.011Z,1010.77
2017-01-16T01:38:21.727Z,1010.8
2017-01-16T01:39:35.360Z,1010.79
2017-01-16T01:40:48.964Z,1010.79
2017-01-16T01:42:02.893Z,1010.77
2017-01-16T01:43:16.619Z,1010.78
2017-01-16T01:44:30.234Z,1010.72
2017-01-16T01:45:43.842Z,1010.75
2017-01-16T01:46:57.481Z,1010.72
2017-01-16T01:48:11.490Z,1010.68
2017-01-16T01:49:25.583Z,1010.72
2017-01-16T01:50:39.223Z,1010.71
2017-01-16T01:51:52.859Z,1010.7
2017-01-16T01:53:06.409Z,1010.72
2017-01-16T01:54:20.534Z,1010.7
2017-01-16T01:55:34.176Z,1010.7
2017-01-16T01:56:47.779Z,1010.68
2017-01-16T01:58:01.435Z,1010.69
2017-01-16T01:59:16.430Z,1010.68
2017-01-16T02:00:30.432Z,1010.74
2017-01-16T02:01:44.114Z,1010.73
2017-01-16T02:02:57.705Z,1010.74
2017-01-16T02:04:12.502Z,1010.79
2017-01-16T02:05:26.052Z,1010.8
2017-01-16T02:06:39.933Z,1010.78
2017-01-16T02:07:53.516Z,1010.8
2017-01-16T02:12:21.730Z,1010.71
2017-01-16T02:13:35.599Z,1010.72
2017-01-16T02:14:49.352Z,1010.76
2017-01-16T02:16:02.946Z,1010.74
2017-01-16T02:17:16.524Z,1010.79
2017-01-16T02:18:30.196Z,1010.73
2017-01-16T02:19:44.295Z,1010.78
2017-01-16T02:20:58.624Z,1010.83
2017-01-16T02:22:18.979Z,1010.77
2017-01-16T02:23:32.944Z,1010.83
2017-01-16T02:24:46.555Z,1010.76
2017-01-16T02:26:00.468Z,1010.82
2017-01-16T02:27:15.071Z,1010.81
2017-01-16T02:28:32.324Z,1010.78
2017-01-16T02:29:49.355Z,1010.8
2017-01-16T02:31:05.788Z,1010.82
2017-01-16T02:32:19.689Z,1010.81
2017-01-16T02:33:33.354Z,1010.87
2017-01-16T02:34:47.319Z,1010.81
2017-01-16T02:36:00.891Z,1010.81
2017-01-16T02:37:14.449Z,1010.8
2017-01-16T02:38:28.472Z,1010.8
2017-01-16T02:39:42.025Z,1010.83
2017-01-16T02:40:55.593Z,1010.85
2017-01-16T02:42:09.177Z,1010.85
2017-01-16T02:43:22.873Z,1010.84
2017-01-16T02:44:36.971Z,1010.82
2017-01-16T02:45:50.599Z,1010.86
2017-01-16T02:47:04.149Z,1010.76
2017-01-16T02:48:17.812Z,1010.83
2017-01-16T02:49:31.674Z,1010.84
2017-01-16T02:50:45.933Z,1010.79
2017-01-16T02:51:59.495Z,1010.82
2017-01-16T02:53:13.476Z,1010.82
2017-01-16T02:54:27.552Z,1010.81
2017-01-16T02:55:41.108Z,1010.82
2017-01-16T02:56:54.972Z,1010.8
2017-01-16T02:58:08.540Z,1010.82
2017-01-16T02:59:22.218Z,1010.8
2017-01-16T03:00:35.757Z,1010.75
2017-01-16T03:01:49.736Z,1010.77
2017-01-16T03:03:03.615Z,1010.78
2017-01-16T03:04:17.609Z,1010.82
2017-01-16T03:05:31.290Z,1010.8
2017-01-16T03:06:45.262Z,1010.75
2017-01-16T03:07:58.801Z,1010.78
2017-01-16T03:09:12.808Z,1010.78
2017-01-16T03:10:27.650Z,1010.79
2017-01-16T03:11:41.084Z,1010.75
2017-01-16T03:12:54.556Z,1010.76
2017-01-16T03:14:07.991Z,1010.77
2017-01-16T03:15:21.942Z,1010.78
2017-01-16T03:16:35.367Z,1010.76
2017-01-16T03:17:48.778Z,1010.8
2017-01-16T03:19:02.233Z,1010.78
2017-01-16T03:20:15.666Z,1010.77
2017-01-16T03:21:29.870Z,1010.75
2017-01-16T03:22:43.338Z,1010.73
2017-01-16T03:23:56.771Z,1010.8
2017-01-16T03:25:10.258Z,1010.79
2017-01-16T03:26:24.066Z,1010.81
2017-01-16T03:27:37.769Z,1010.8
2017-01-16T03:28:51.258Z,1010.79
2017-01-16T03:30:04.701Z,1010.76
2017-01-16T03:31:18.445Z,1010.74
2017-01-16T03:32:31.885Z,1010.76
2017-01-16T03:33:45.616Z,1010.82
2017-01-16T03:34:59.039Z,1010.81
2017-01-16T03:36:12.871Z,1010.84
2017-01-16T03:37:26.803Z,1010.88
2017-01-16T03:38:42.418Z,1010.92
2017-01-16T03:39:56.095Z,1010.85
2017-01-16T03:41:09.930Z,1010.89
2017-01-16T03:42:23.494Z,1010.91
2017-01-16T03:43:36.926Z,1010.95
2017-01-16T03:44:50.354Z,1010.95
2017-01-16T03:46:04.071Z,1010.97
2017-01-16T03:47:18.769Z,1010.98
2017-01-16T03:48:32.202Z,1011.04
2017-01-16T03:49:45.641Z,1010.96
2017-01-16T03:50:59.462Z,1011.05
2017-01-16T03:52:13.207Z,1010.98
2017-01-16T03:53:26.754Z,1011.11
2017-01-16T03:54:40.399Z,1011.09
2017-01-16T03:55:53.842Z,1011.08
2017-01-16T03:57:07.251Z,1011.1
2017-01-16T03:58:22.558Z,1011.13
2017-01-16T03:59:35.936Z,1011.11
2017-01-16T04:00:49.505Z,1011.11
2017-01-16T04:02:03.526Z,1011.13
2017-01-16T04:03:17.075Z,1011.13
2017-01-16T04:04:30.830Z,1011.13
2017-01-16T04:05:44.282Z,1011.11
2017-01-16T04:06:58.128Z,1011.06
2017-01-16T04:08:11.569Z,1011.08
2017-01-16T04:09:25.164Z,1011.09
2017-01-16T04:10:38.849Z,1011.05
2017-01-16T04:11:52.286Z,1011.1
2017-01-16T04:13:06.161Z,1011.11
2017-01-16T04:14:19.678Z,1011.09
2017-01-16T04:15:33.146Z,1011.1
2017-01-16T04:16:46.847Z,1011.12
2017-01-16T04:18:00.260Z,1011.11
2017-01-16T04:19:13.785Z,1011.15
2017-01-16T04:20:27.218Z,1011.12
2017-01-16T04:21:40.838Z,1011.1
2017-01-16T04:22:54.843Z,1011.13
2017-01-16T04:24:11.454Z,1011.16
2017-01-16T04:25:24.907Z,1011.07
2017-01-16T04:26:38.344Z,1011.09
2017-01-16T04:27:51.811Z,1011.11
2017-01-16T04:29:05.536Z,1011.13
2017-01-16T04:30:20.261Z,1011.08
2017-01-16T04:31:33.785Z,1011.11
2017-01-16T04:32:47.268Z,1011.1
2017-01-16T04:34:00.698Z,1011.1
2017-01-16T04:35:14.758Z,1011.08
2017-01-16T04:36:28.173Z,1011.13
2017-01-16T04:37:41.619Z,1011.14
2017-01-16T04:38:55.099Z,1011.11
2017-01-16T04:40:08.678Z,1011.2
2017-01-16T04:41:22.596Z,1011.24
2017-01-16T04:42:36.032Z,1011.22
2017-01-16T04:43:49.525Z,1011.2
2017-01-16T04:45:02.960Z,1011.24
2017-01-16T04:46:31.302Z,1011.29
2017-01-16T04:47:45.026Z,1011.26
2017-01-16T04:48:58.447Z,1011.25
2017-01-16T04:50:11.900Z,1011.29
2017-01-16T04:51:25.320Z,1011.31
2017-01-16T04:52:38.881Z,1011.29
2017-01-16T04:53:52.612Z,1011.31
2017-01-16T04:55:08.301Z,1011.35
2017-01-16T04:56:21.763Z,1011.33
2017-01-16T04:57:35.739Z,1011.34
2017-01-16T04:58:49.189Z,1011.38
2017-01-16T05:00:03.365Z,1011.36
2017-01-16T05:01:16.820Z,1011.41
2017-01-16T05:02:30.358Z,1011.4
2017-01-16T05:03:43.815Z,1011.44
2017-01-16T05:04:57.683Z,1011.47
2017-01-16T05:06:11.401Z,1011.42
2017-01-16T05:07:24.877Z,1011.46
2017-01-16T05:08:38.403Z,1011.52
2017-01-16T05:09:51.867Z,1011.51
2017-01-16T05:11:05.445Z,1011.49
2017-01-16T05:12:19.179Z,1011.51
2017-01-16T05:13:32.729Z,1011.51
2017-01-16T05:14:46.194Z,1011.46
2017-01-16T05:15:59.701Z,1011.51
2017-01-16T05:17:13.087Z,1011.48
2017-01-16T05:18:26.964Z,1011.52
2017-01-16T05:19:40.376Z,1011.49
2017-01-16T05:20:53.803Z,1011.53
2017-01-16T05:22:07.267Z,1011.58
2017-01-16T05:23:20.700Z,1011.64
2017-01-16T05:24:34.549Z,1011.61
2017-01-16T05:25:47.949Z,1011.62
2017-01-16T05:27:01.389Z,1011.64
2017-01-16T05:28:14.832Z,1011.62
2017-01-16T05:29:28.359Z,1011.61
2017-01-16T05:30:42.071Z,1011.59
2017-01-16T05:31:55.517Z,1011.65
2017-01-16T05:33:08.947Z,1011.62
2017-01-16T05:34:22.893Z,1011.6
2017-01-16T05:35:36.354Z,1011.63
2017-01-16T05:36:50.083Z,1011.66
2017-01-16T05:38:03.645Z,1011.68
2017-01-16T05:39:17.474Z,1011.67
2017-01-16T05:40:30.939Z,1011.69
2017-01-16T05:41:44.375Z,1011.67
2017-01-16T05:42:58.131Z,1011.68
2017-01-16T05:44:11.689Z,1011.7
2017-01-16T05:45:28.736Z,1011.67
2017-01-16T05:46:42.426Z,1011.67
2017-01-16T05:47:55.860Z,1011.73
2017-01-16T05:49:09.625Z,1011.77
2017-01-16T05:50:23.299Z,1011.82
2017-01-16T05:51:36.863Z,1011.81
2017-01-16T05:52:50.746Z,1011.81
2017-01-16T05:54:04.185Z,1011.86
2017-01-16T05:55:17.941Z,1011.85
2017-01-16T05:56:31.863Z,1011.87
2017-01-16T05:57:45.713Z,1011.89
2017-01-16T05:58:59.129Z,1011.82
2017-01-16T06:00:12.587Z,1011.84
2017-01-16T06:01:26.506Z,1011.92
2017-01-16T06:02:40.084Z,1011.91
2017-01-16T06:03:53.529Z,1011.94
2017-01-16T06:05:06.980Z,1011.9
2017-01-16T06:06:20.595Z,1011.91
2017-01-16T06:07:34.336Z,1011.96
2017-01-16T06:08:47.826Z,1012.02
2017-01-16T06:10:01.239Z,1012.04
2017-01-16T06:11:16.826Z,1012.04
2017-01-16T06:12:30.377Z,1012.05
2017-01-16T06:13:44.148Z,1012.02
2017-01-16T06:14:58.025Z,1012.04
2017-01-16T06:16:11.450Z,1012.08
2017-01-16T06:17:26.168Z,1012.03
2017-01-16T06:18:39.629Z,1012.07
2017-01-16T06:19:53.319Z,1012.08
2017-01-16T06:21:06.797Z,1012.13
2017-01-16T06:22:20.577Z,1012.11
2017-01-16T06:23:35.761Z,1012.14
2017-01-16T06:24:52.481Z,1012.17
2017-01-16T06:26:08.283Z,1012.23
2017-01-16T06:27:23.001Z,1012.23
2017-01-16T06:28:36.471Z,1012.3
2017-01-16T06:29:49.914Z,1012.25
2017-01-16T06:31:03.357Z,1012.22
2017-01-16T06:32:17.087Z,1012.31
2017-01-16T06:33:32.206Z,1012.24
2017-01-16T06:34:45.635Z,1012.25
2017-01-16T06:35:59.079Z,1012.28
2017-01-16T06:37:12.494Z,1012.33
2017-01-16T06:38:26.292Z,1012.34
2017-01-16T06:39:39.717Z,1012.32
2017-01-16T06:40:53.247Z,1012.33
2017-01-16T06:42:06.652Z,1012.3
2017-01-16T06:43:20.535Z,1012.33
2017-01-16T06:44:34.292Z,1012.34
2017-01-16T06:45:48.157Z,1012.34
2017-01-16T06:47:01.663Z,1012.38
2017-01-16T06:48:15.138Z,1012.38
2017-01-16T06:49:29.103Z,1012.39
2017-01-16T06:50:42.793Z,1012.36
2017-01-16T06:51:56.277Z,1012.41
2017-01-16T06:53:09.739Z,1012.38
2017-01-16T06:54:23.489Z,1012.43
2017-01-16T06:55:36.983Z,1012.42
2017-01-16T06:56:50.726Z,1012.41
2017-01-16T06:58:04.158Z,1012.43
2017-01-16T06:59:17.702Z,1012.41
2017-01-16T07:00:31.463Z,1012.48
2017-01-16T07:01:44.908Z,1012.5
2017-01-16T07:02:58.631Z,1012.45
2017-01-16T07:04:12.114Z,1012.48
2017-01-16T07:05:25.667Z,1012.48
2017-01-16T07:06:39.130Z,1012.46
2017-01-16T07:07:52.547Z,1012.41
2017-01-16T07:09:06.274Z,1012.45
2017-01-16T07:10:20.065Z,1012.45
2017-01-16T07:11:33.546Z,1012.44
2017-01-16T07:12:46.971Z,1012.42
2017-01-16T07:14:00.449Z,1012.47
2017-01-16T07:15:15.419Z,1012.51
2017-01-16T07:16:28.856Z,1012.51
2017-01-16T07:17:42.750Z,1012.53
2017-01-16T07:18:56.240Z,1012.55
2017-01-16T07:20:10.181Z,1012.62
2017-01-16T07:21:24.037Z,1012.58
2017-01-16T07:22:37.451Z,1012.62
2017-01-16T07:23:50.881Z,1012.62
2017-01-16T07:25:04.357Z,1012.62
2017-01-16T07:26:17.913Z,1012.71
2017-01-16T07:27:34.440Z,1012.69
2017-01-16T07:28:47.972Z,1012.73
2017-01-16T07:30:01.422Z,1012.74
2017-01-16T07:31:15.440Z,1012.75
2017-01-16T07:32:28.912Z,1012.78
2017-01-16T07:33:42.731Z,1012.78
2017-01-16T07:34:56.134Z,1012.8
2017-01-16T07:36:09.816Z,1012.82
2017-01-16T07:37:23.400Z,1012.89
2017-01-16T07:38:37.246Z,1012.89
2017-01-16T07:39:50.972Z,1012.98
2017-01-16T07:41:04.478Z,1013.02
2017-01-16T07:42:18.112Z,1012.98
2017-01-16T07:43:31.557Z,1013.02
2017-01-16T07:44:45.022Z,1013.01
2017-01-16T07:45:59.303Z,1013.05
2017-01-16T07:47:14.134Z,1013.05
2017-01-16T07:48:27.597Z,1013.07
2017-01-16T07:49:41.281Z,1013.07
2017-01-16T07:50:54.874Z,1013.1
2017-01-16T07:52:08.839Z,1013.09
2017-01-16T07:53:23.632Z,1013.13
2017-01-16T07:54:37.174Z,1013.12
2017-01-16T07:55:50.936Z,1013.17
2017-01-16T07:57:11.133Z,1013.11
2017-01-16T07:58:25.345Z,1013.21
2017-01-16T07:59:38.956Z,1013.18
2017-01-16T08:00:52.665Z,1013.2
2017-01-16T08:02:06.225Z,1013.17
2017-01-16T08:03:20.264Z,1013.19
2017-01-16T08:04:34.458Z,1013.28
2017-01-16T08:05:47.896Z,1013.27
2017-01-16T08:07:01.362Z,1013.22
2017-01-16T08:08:14.917Z,1013.28
2017-01-16T08:09:28.400Z,1013.28
2017-01-16T08:10:42.478Z,1013.34
2017-01-16T08:11:55.945Z,1013.27
2017-01-16T08:13:09.717Z,1013.29
2017-01-16T08:14:23.279Z,1013.32
2017-01-16T08:15:36.806Z,1013.42
2017-01-16T08:16:50.551Z,1013.38
2017-01-16T08:18:04.025Z,1013.44
2017-01-16T08:19:17.726Z,1013.34
2017-01-16T08:20:31.259Z,1013.37
2017-01-16T08:21:45.324Z,1013.43
2017-01-16T08:22:59.141Z,1013.48
2017-01-16T08:24:12.809Z,1013.48
2017-01-16T08:25:26.310Z,1013.48
2017-01-16T08:26:39.851Z,1013.41
2017-01-16T08:27:53.391Z,1013.49
2017-01-16T08:29:07.259Z,1013.43
2017-01-16T08:30:20.836Z,1013.47
2017-01-16T08:31:34.536Z,1013.47
2017-01-16T08:32:48.092Z,1013.45
2017-01-16T08:34:01.657Z,1013.4
2017-01-16T08:35:15.678Z,1013.52
2017-01-16T08:36:29.319Z,1013.45
2017-01-16T08:37:42.822Z,1013.6
2017-01-16T08:38:56.358Z,1013.49
2017-01-16T08:40:09.947Z,1013.52
2017-01-16T08:41:23.929Z,1013.55
2017-01-16T08:42:37.543Z,1013.51
2017-01-16T08:43:53.387Z,1013.51
2017-01-16T08:45:07.129Z,1013.6
2017-01-16T08:46:20.568Z,1013.55
2017-01-16T08:47:34.391Z,1013.54
2017-01-16T08:48:47.932Z,1013.56
2017-01-16T08:50:02.190Z,1013.53
2017-01-16T08:51:15.787Z,1013.57
2017-01-16T08:52:29.302Z,1013.57
2017-01-16T08:53:43.055Z,1013.55
2017-01-16T08:54:56.615Z,1013.55
2017-01-16T08:56:10.295Z,1013.6
2017-01-16T08:57:23.763Z,1013.61
2017-01-16T08:58:37.209Z,1013.64
2017-01-16T08:59:50.933Z,1013.61
2017-01-16T09:01:04.482Z,1013.58
2017-01-16T09:02:17.905Z,1013.68
2017-01-16T09:03:31.333Z,1013.67
2017-01-16T09:04:44.792Z,1013.69
2017-01-16T09:05:58.516Z,1013.64
2017-01-16T09:07:13.693Z,1013.7
2017-01-16T09:08:27.173Z,1013.58
2017-01-16T09:09:40.627Z,1013.6
2017-01-16T09:10:54.125Z,1013.72
2017-01-16T09:12:09.006Z,1013.63
2017-01-16T09:13:22.495Z,1013.67
2017-01-16T09:14:35.962Z,1013.68
2017-01-16T09:15:49.576Z,1013.65
2017-01-16T09:17:03.166Z,1013.67
2017-01-16T09:18:17.233Z,1013.73
2017-01-16T09:19:31.125Z,1013.77
2017-01-16T09:20:44.595Z,1013.73
2017-01-16T09:21:58.136Z,1013.7
2017-01-16T09:23:12.377Z,1013.76
2017-01-16T09:24:26.128Z,1013.79
2017-01-16T09:25:39.555Z,1013.81
2017-01-16T09:26:53.006Z,1013.76
2017-01-16T09:28:06.570Z,1013.76
2017-01-16T09:29:20.202Z,1013.81
2017-01-16T09:30:33.950Z,1013.76
2017-01-16T09:31:47.740Z,1013.81
2017-01-16T09:33:01.262Z,1013.81
2017-01-16T09:34:14.714Z,1013.85
2017-01-16T09:35:29.769Z,1013.82
2017-01-16T09:36:43.552Z,1013.83
2017-01-16T09:37:57.081Z,1013.83
2017-01-16T09:39:12.409Z,1013.87
2017-01-16T09:40:25.874Z,1013.86
2017-01-16T09:41:39.805Z,1013.82
2017-01-16T09:42:53.524Z,1013.87
2017-01-16T09:44:07.050Z,1013.88
2017-01-16T09:45:20.943Z,1013.87
2017-01-16T09:46:34.353Z,1013.86
2017-01-16T09:47:47.855Z,1013.89
2017-01-16T09:49:01.656Z,1013.93
2017-01-16T09:50:15.117Z,1013.93
2017-01-16T09:51:28.691Z,1013.93
2017-01-16T09:52:42.130Z,1013.97
2017-01-16T09:53:55.581Z,1014.02
2017-01-16T09:55:11.052Z,1014.01
2017-01-16T09:56:24.570Z,1013.98
2017-01-16T09:57:38.012Z,1014.09
2017-01-16T09:58:51.471Z,1014.03
2017-01-16T10:00:07.159Z,1014.08
2017-01-16T10:01:20.905Z,1014.06
2017-01-16T10:02:34.366Z,1014.02
2017-01-16T10:03:47.835Z,1014.01
2017-01-16T10:05:01.408Z,1014.03
2017-01-16T10:06:14.815Z,1014.05
2017-01-16T10:07:28.565Z,1014.04
2017-01-16T10:08:42.043Z,1014.1
2017-01-16T10:09:55.899Z,1014.13
2017-01-16T10:11:09.870Z,1014.14
2017-01-16T10:12:23.318Z,1014.12
2017-01-16T10:13:37.058Z,1014.11
2017-01-16T10:14:50.584Z,1014.09
2017-01-16T10:16:04.142Z,1014.12
2017-01-16T10:17:18.829Z,1014.07
2017-01-16T10:18:32.676Z,1014.11
2017-01-16T10:19:46.482Z,1014.12
2017-01-16T10:21:00.147Z,1014.16
2017-01-16T10:22:13.619Z,1014.04
2017-01-16T10:23:27.083Z,1014.12
2017-01-16T10:24:40.537Z,1014.06
2017-01-16T10:25:54.671Z,1014.05
2017-01-16T10:27:09.473Z,1014.02
2017-01-16T10:28:23.317Z,1014
2017-01-16T10:29:36.791Z,1014
2017-01-16T10:30:50.209Z,1014.08
2017-01-16T10:32:05.479Z,1014.02
2017-01-16T10:33:19.148Z,1014.02
2017-01-16T10:34:32.622Z,1014.06
2017-01-16T10:35:46.100Z,1014.03
2017-01-16T10:36:59.648Z,1014.04
2017-01-16T10:38:13.403Z,1014.04
2017-01-16T10:39:27.092Z,1014.03
2017-01-16T10:40:40.571Z,1013.95
2017-01-16T10:41:54.033Z,1013.97
2017-01-16T10:43:07.572Z,1013.97
2017-01-16T10:44:21.289Z,1013.89
2017-01-16T10:45:34.770Z,1013.92
2017-01-16T10:46:48.624Z,1013.88
2017-01-16T10:48:02.152Z,1013.89
2017-01-16T10:49:15.603Z,1013.96
2017-01-16T10:50:29.742Z,1013.91
2017-01-16T10:51:43.577Z,1013.9
2017-01-16T10:52:57.134Z,1013.94
2017-01-16T10:54:10.998Z,1013.98
2017-01-16T10:55:24.402Z,1014.01
2017-01-16T10:56:38.080Z,1013.91
2017-01-16T10:57:51.599Z,1013.89
2017-01-16T10:59:05.155Z,1013.86
2017-01-16T11:00:18.594Z,1014.07
2017-01-16T11:01:32.073Z,1013.95
2017-01-16T11:02:45.773Z,1013.98
2017-01-16T11:03:59.294Z,1014.04
2017-01-16T11:05:12.742Z,1014.03
2017-01-16T11:06:26.251Z,1014.05
2017-01-16T11:07:40.077Z,1014.01
2017-01-16T11:08:53.911Z,1013.89
2017-01-16T11:10:07.374Z,1013.91
2017-01-16T11:11:21.290Z,1013.93
2017-01-16T11:12:35.262Z,1013.94
2017-01-16T11:13:48.716Z,1014.24
2017-01-16T11:15:02.552Z,1014.07
2017-01-16T11:16:18.399Z,1014.01
2017-01-16T11:17:31.796Z,1014.01
2017-01-16T11:18:45.527Z,1014
2017-01-16T11:19:59.067Z,1013.96
2017-01-16T11:21:12.837Z,1013.95
2017-01-16T11:22:26.248Z,1013.9
2017-01-16T11:23:39.664Z,1013.88
2017-01-16T11:24:53.121Z,1013.92
2017-01-16T11:26:06.690Z,1013.98
2017-01-16T11:27:20.469Z,1013.94
2017-01-16T11:28:33.975Z,1014.03
2017-01-16T11:29:47.513Z,1014.04
2017-01-16T11:31:01.064Z,1014.08
2017-01-16T11:32:14.937Z,1014
2017-01-16T11:33:28.716Z,1014.03
2017-01-16T11:34:42.203Z,1014.01
2017-01-16T11:35:57.707Z,1014.04
2017-01-16T11:37:11.157Z,1014.02
2017-01-16T11:38:24.628Z,1014.28
2017-01-16T11:39:38.452Z,1014.16
2017-01-16T11:40:52.036Z,1013.98
2017-01-16T11:42:05.951Z,1014.03
2017-01-16T11:43:19.416Z,1013.99
2017-01-16T11:44:32.852Z,1013.85
2017-01-16T11:45:46.761Z,1013.96
2017-01-16T11:47:01.564Z,1013.91
2017-01-16T11:48:15.463Z,1013.93
2017-01-16T11:49:29.315Z,1014.09
2017-01-16T11:50:42.768Z,1013.98
2017-01-16T11:51:56.766Z,1013.99
2017-01-16T11:53:10.212Z,1014.17
2017-01-16T11:54:23.736Z,1014.04
2017-01-16T11:55:37.258Z,1014.05
2017-01-16T11:56:50.746Z,1013.97
2017-01-16T11:58:04.528Z,1013.92
2017-01-16T11:59:17.993Z,1013.88
2017-01-16T12:00:31.935Z,1014.07
2017-01-16T12:01:45.835Z,1014.02
2017-01-16T12:03:00.703Z,1014.05
2017-01-16T12:04:14.485Z,1014.04
2017-01-16T12:05:27.960Z,1014.15
2017-01-16T12:06:41.436Z,1013.93
2017-01-16T12:07:54.958Z,1013.95
2017-01-16T12:09:08.491Z,1014.04
2017-01-16T12:10:22.264Z,1014.03
2017-01-16T12:11:35.726Z,1014
2017-01-16T12:12:49.753Z,1014.04
2017-01-16T12:14:03.241Z,1013.99
2017-01-16T12:15:16.708Z,1014.08
2017-01-16T12:16:30.477Z,1014
2017-01-16T12:17:44.359Z,1014.01
2017-01-16T12:18:57.962Z,1014.04
2017-01-16T12:20:11.794Z,1014.14
2017-01-16T12:21:25.256Z,1014.11
2017-01-16T12:22:39.462Z,1014.01
2017-01-16T12:23:53.606Z,1014.01
2017-01-16T12:25:07.266Z,1014.09
2017-01-16T12:26:20.709Z,1014.02
2017-01-16T12:27:34.145Z,1013.99
2017-01-16T12:28:48.072Z,1014.01
2017-01-16T12:30:01.589Z,1013.94
2017-01-16T12:31:15.091Z,1013.98
2017-01-16T12:32:31.146Z,1013.93
2017-01-16T12:33:44.614Z,1014
2017-01-16T12:34:58.484Z,1013.94
2017-01-16T12:36:11.982Z,1013.96
2017-01-16T12:37:25.451Z,1013.98
2017-01-16T12:38:38.890Z,1013.97
2017-01-16T12:39:52.395Z,1013.97
2017-01-16T12:41:06.211Z,1013.97
2017-01-16T12:42:19.700Z,1013.95
2017-01-16T12:43:33.222Z,1014.01
2017-01-16T12:44:46.788Z,1014.11
2017-01-16T12:46:00.241Z,1013.99
2017-01-16T12:47:13.968Z,1013.95
2017-01-16T12:48:27.426Z,1014.16
2017-01-16T12:49:41.308Z,1014.01
2017-01-16T12:50:54.876Z,1013.99
2017-01-16T12:52:08.305Z,1014.02
2017-01-16T12:53:22.038Z,1013.97
2017-01-16T12:54:35.516Z,1014
2017-01-16T12:55:49.139Z,1014.02
2017-01-16T12:57:02.591Z,1014.01
2017-01-16T12:58:16.032Z,1014
2017-01-16T12:59:29.787Z,1014.02
2017-01-16T13:00:43.317Z,1013.92
2017-01-16T13:01:56.763Z,1013.99
2017-01-16T13:03:10.193Z,1013.94
2017-01-16T13:04:24.068Z,1013.93
2017-01-16T13:05:37.831Z,1013.93
2017-01-16T13:06:51.860Z,1013.97
2017-01-16T13:08:05.314Z,1013.84
2017-01-16T13:09:19.023Z,1013.96
2017-01-16T13:10:32.454Z,1013.86
2017-01-16T13:11:46.071Z,1013.93
2017-01-16T13:12:59.575Z,1014
2017-01-16T13:14:13.054Z,1013.91
2017-01-16T13:15:26.478Z,1013.94
2017-01-16T13:16:40.175Z,1013.98
2017-01-16T13:17:53.995Z,1014.01
2017-01-16T13:19:07.497Z,1014
2017-01-16T13:20:20.978Z,1014
2017-01-16T13:21:34.457Z,1014
2017-01-16T13:22:48.135Z,1014.02
2017-01-16T13:24:01.895Z,1014.04
2017-01-16T13:25:15.764Z,1014.03
2017-01-16T13:26:29.271Z,1014.04
2017-01-16T13:27:42.949Z,1014.03
2017-01-16T13:28:56.897Z,1014.1
2017-01-16T13:30:10.733Z,1014.07
2017-01-16T13:31:24.173Z,1014.04
2017-01-16T13:32:38.990Z,1014.06
2017-01-16T13:33:52.462Z,1014.13
2017-01-16T13:35:06.376Z,1014.15
2017-01-16T13:36:20.144Z,1014.15
2017-01-16T13:37:34.499Z,1014.14
2017-01-16T13:38:48.487Z,1014.15
2017-01-16T13:40:02.063Z,1014.16
2017-01-16T13:41:15.983Z,1014.28
2017-01-16T13:42:30.126Z,1014.26
2017-01-16T13:43:44.360Z,1014.24
2017-01-16T13:44:58.446Z,1014.25
2017-01-16T13:46:11.975Z,1014.21
2017-01-16T13:47:25.533Z,1014.22
2017-01-16T13:48:41.682Z,1014.22
2017-01-16T13:49:55.192Z,1014.27
2017-01-16T13:51:08.739Z,1014.28
2017-01-16T13:52:22.211Z,1014.26
2017-01-16T13:53:36.131Z,1014.25
2017-01-16T13:54:50.062Z,1014.21
2017-01-16T13:56:04.115Z,1014.25
2017-01-16T13:57:17.652Z,1014.22
2017-01-16T13:58:31.260Z,1014.3
2017-01-16T13:59:44.877Z,1014.34
2017-01-16T14:00:59.657Z,1014.33
2017-01-16T14:02:13.211Z,1014.34
2017-01-16T14:03:26.740Z,1014.31
2017-01-16T14:04:40.344Z,1014.27
2017-01-16T14:05:53.805Z,1014.29
2017-01-16T14:07:07.572Z,1014.35
2017-01-16T14:08:21.013Z,1014.36
2017-01-16T14:09:35.171Z,1014.34
2017-01-16T14:10:48.669Z,1014.39
2017-01-16T14:12:02.187Z,1014.45
2017-01-16T14:13:16.445Z,1014.43
2017-01-16T14:14:29.937Z,1014.46
2017-01-16T14:15:44.063Z,1014.41
2017-01-16T14:16:57.508Z,1014.36
2017-01-16T14:18:10.984Z,1014.4
2017-01-16T14:19:24.790Z,1014.41
2017-01-16T14:20:38.340Z,1014.39
2017-01-16T14:21:51.841Z,1014.36
2017-01-16T14:23:05.343Z,1014.4
2017-01-16T14:24:18.799Z,1014.5
2017-01-16T14:25:33.039Z,1014.41
2017-01-16T14:26:46.498Z,1014.41
2017-01-16T14:28:00.221Z,1014.49
2017-01-16T14:29:13.706Z,1014.46
2017-01-16T14:30:27.245Z,1014.48
2017-01-16T14:31:41.622Z,1014.54
2017-01-16T14:32:55.651Z,1014.51
2017-01-16T14:34:09.147Z,1014.55
2017-01-16T14:35:22.616Z,1014.55
2017-01-16T14:36:37.477Z,1014.55
2017-01-16T14:37:51.216Z,1014.55
2017-01-16T14:39:04.680Z,1014.54
2017-01-16T14:40:18.126Z,1014.53
2017-01-16T14:41:32.067Z,1014.77
2017-01-16T14:42:45.533Z,1014.71
2017-01-16T14:43:59.337Z,1014.62
2017-01-16T14:45:13.419Z,1014.68
2017-01-16T14:46:27.306Z,1014.67
2017-01-16T14:47:42.068Z,1014.68
2017-01-16T14:48:55.547Z,1014.69
2017-01-16T14:50:09.299Z,1014.66
2017-01-16T14:51:22.785Z,1014.63
2017-01-16T14:52:36.321Z,1014.67
2017-01-16T14:53:49.773Z,1014.63
2017-01-16T14:55:03.233Z,1014.65
2017-01-16T14:56:17.023Z,1014.67
2017-01-16T14:57:30.612Z,1014.7
2017-01-16T14:58:44.602Z,1014.76
2017-01-16T14:59:58.220Z,1014.77